Time;durP1;ratioP1;P1;durP2;ratioP2;P2;SDS_P1;SDS_P2;PMS_P1;PMS_P2;Temp;Humidity;BMP_temperature;BMP_pressure;BME280_temperature;BME280_humidity;BME280_pressure;Samples;Min_cycle;Max_cycle;Signal;HPM_P1;HPM_P2
2022/03/19 00:00:09;;;;;;;97.83;53.07;;;5.60;99.90;;;;;;5070135;28;20207;-76
2022/03/19 00:02:35;;;;;;;87.33;50.50;;;5.80;99.90;;;;;;5070666;28;20175;-79
2022/03/19 00:05:00;;;;;;;96.33;53.70;;;5.90;99.90;;;;;;5052588;28;20532;-79
2022/03/19 00:07:27;;;;;;;89.83;53.47;;;6.10;99.90;;;;;;5052412;28;20179;-79
2022/03/19 00:09:52;;;;;;;89.33;52.50;;;6.40;99.90;;;;;;5068572;28;20207;-77
2022/03/19 00:12:18;;;;;;;90.33;52.37;;;6.40;99.90;;;;;;5068811;28;20449;-76
2022/03/19 00:14:44;;;;;;;90.50;52.10;;;6.40;99.90;;;;;;5052206;28;20290;-77
2022/03/19 00:17:10;;;;;;;90.07;50.73;;;6.50;99.90;;;;;;5070423;28;20236;-79
2022/03/19 00:19:39;;;;;;;92.87;55.10;;;6.60;99.90;;;;;;5070766;28;20454;-79
2022/03/19 00:22:06;;;;;;;92.73;52.23;;;6.70;99.90;;;;;;5069427;28;20421;-78
2022/03/19 00:24:34;;;;;;;85.63;50.30;;;6.70;99.90;;;;;;5070613;28;20477;-77
2022/03/19 00:27:00;;;;;;;93.27;52.60;;;6.70;99.90;;;;;;5051854;28;20425;-77
2022/03/19 00:29:25;;;;;;;92.73;55.60;;;6.80;99.90;;;;;;5070366;28;20443;-78
2022/03/19 00:31:51;;;;;;;90.77;51.33;;;6.80;99.90;;;;;;5070261;28;20277;-78
2022/03/19 00:34:16;;;;;;;90.37;53.40;;;6.80;99.90;;;;;;5068237;28;20191;-78
2022/03/19 00:36:42;;;;;;;93.33;54.87;;;6.80;99.90;;;;;;5068775;28;20189;-78
2022/03/19 00:39:08;;;;;;;90.37;53.93;;;6.80;99.90;;;;;;5051676;28;20707;-77
2022/03/19 00:41:33;;;;;;;86.73;52.30;;;6.80;99.90;;;;;;5068335;28;20444;-76
2022/03/19 00:43:59;;;;;;;94.73;54.47;;;6.80;99.90;;;;;;5069514;28;20187;-77
2022/03/19 00:46:25;;;;;;;90.40;53.30;;;6.80;99.90;;;;;;5068226;28;20213;-77
2022/03/19 00:48:50;;;;;;;96.50;52.77;;;6.90;99.90;;;;;;5051645;28;20245;-76
2022/03/19 00:51:16;;;;;;;90.57;53.27;;;6.90;99.90;;;;;;5068257;28;20218;-77
2022/03/19 00:53:42;;;;;;;96.40;55.23;;;6.80;99.90;;;;;;5069668;28;20182;-76
2022/03/19 00:56:07;;;;;;;96.17;52.80;;;6.80;99.90;;;;;;5068322;28;20282;-76
2022/03/19 00:58:33;;;;;;;90.93;52.23;;;6.80;99.90;;;;;;5068291;28;20207;-77
2022/03/19 01:00:58;;;;;;;85.27;51.00;;;6.80;99.90;;;;;;5069857;28;20179;-77
2022/03/19 01:03:24;;;;;;;91.10;53.03;;;6.80;99.90;;;;;;5068136;28;20179;-77
2022/03/19 01:05:50;;;;;;;86.73;51.47;;;6.80;99.90;;;;;;5068142;28;20624;-76
2022/03/19 01:08:15;;;;;;;83.27;51.00;;;6.90;99.90;;;;;;5067827;28;20698;-76
2022/03/19 01:10:41;;;;;;;85.97;48.93;;;7.00;99.90;;;;;;5067594;28;20214;-76
2022/03/19 01:13:08;;;;;;;85.53;48.43;;;6.90;99.90;;;;;;5068190;28;20249;-76
2022/03/19 01:15:33;;;;;;;84.33;49.20;;;6.90;99.90;;;;;;5069334;28;20879;-76
2022/03/19 01:18:00;;;;;;;78.60;49.40;;;6.90;99.90;;;;;;5069468;28;20413;-76
2022/03/19 01:20:27;;;;;;;80.73;46.07;;;6.90;99.90;;;;;;5068118;28;20177;-76
2022/03/19 01:22:53;;;;;;;78.67;44.33;;;6.80;99.90;;;;;;5067973;28;20448;-76
2022/03/19 01:25:19;;;;;;;83.00;48.13;;;6.90;99.90;;;;;;5068260;28;20460;-77
2022/03/19 01:27:47;;;;;;;79.57;47.57;;;6.90;99.90;;;;;;5069732;28;20460;-76
2022/03/19 01:30:16;;;;;;;84.83;45.80;;;6.90;99.90;;;;;;5067876;28;20437;-77
2022/03/19 01:32:42;;;;;;;81.47;46.30;;;6.90;99.90;;;;;;5067831;28;20429;-75
2022/03/19 01:35:10;;;;;;;76.60;45.83;;;6.70;99.90;;;;;;5067876;28;20988;-77
2022/03/19 01:37:36;;;;;;;75.20;45.20;;;6.80;99.90;;;;;;5069324;28;20175;-77
2022/03/19 01:40:04;;;;;;;76.80;46.33;;;6.80;99.90;;;;;;5069938;28;20483;-78
2022/03/19 01:42:32;;;;;;;78.67;45.67;;;6.80;99.90;;;;;;5069197;28;20410;-76
2022/03/19 01:44:59;;;;;;;79.30;45.07;;;6.80;99.90;;;;;;5069178;28;20422;-77
2022/03/19 01:47:28;;;;;;;75.67;46.33;;;6.90;99.90;;;;;;5067824;28;20999;-76
2022/03/19 01:49:54;;;;;;;78.60;46.80;;;6.60;99.90;;;;;;5069060;28;20443;-77
2022/03/19 01:52:20;;;;;;;71.73;44.60;;;6.50;99.90;;;;;;5067812;28;20805;-76
2022/03/19 01:54:48;;;;;;;82.50;46.10;;;6.60;99.90;;;;;;5067769;28;20461;-76
2022/03/19 01:57:24;;;;;;;71.17;42.77;;;6.60;99.90;;;;;;5069153;28;20180;-77
2022/03/19 01:59:51;;;;;;;74.60;43.90;;;6.70;99.90;;;;;;5069277;28;20437;-78
2022/03/19 02:02:17;;;;;;;69.93;45.37;;;6.70;99.90;;;;;;5069651;28;20414;-77
2022/03/19 02:04:44;;;;;;;76.60;42.70;;;6.70;99.90;;;;;;5068202;28;20421;-77
2022/03/19 02:07:12;;;;;;;76.80;43.43;;;6.60;99.90;;;;;;5068069;28;20436;-77
2022/03/19 02:09:38;;;;;;;67.97;41.33;;;6.60;99.90;;;;;;5068179;28;20441;-77
2022/03/19 02:12:05;;;;;;;68.77;43.17;;;6.70;99.90;;;;;;5069417;28;20428;-78
2022/03/19 02:14:40;;;;;;;80.03;44.20;;;6.60;99.90;;;;;;5067964;28;20422;-77
2022/03/19 02:17:07;;;;;;;66.83;41.90;;;6.60;99.90;;;;;;5069140;28;20454;-77
2022/03/19 02:19:33;;;;;;;66.90;41.60;;;6.40;99.90;;;;;;5051094;28;20841;-77
2022/03/19 02:21:59;;;;;;;77.20;42.30;;;6.60;99.90;;;;;;5072433;28;20416;-77
2022/03/19 02:27:11;;;;;;;72.30;42.93;;;6.50;99.90;;;;;;5072749;28;20420;-77
2022/03/19 02:29:36;;;;;;;68.23;43.23;;;6.60;99.90;;;;;;5072363;28;20440;-77
2022/03/19 02:32:06;;;;;;;66.97;40.73;;;6.40;99.90;;;;;;5072373;28;20413;-77
2022/03/19 02:34:33;;;;;;;71.33;39.73;;;6.40;99.90;;;;;;5072430;28;20176;-76
2022/03/19 02:37:00;;;;;;;69.00;38.97;;;6.40;99.90;;;;;;5072372;28;20806;-76
2022/03/19 02:39:31;;;;;;;70.97;39.00;;;6.50;99.90;;;;;;5070935;28;20491;-76
2022/03/19 02:41:59;;;;;;;71.03;40.23;;;6.40;99.90;;;;;;5072283;28;20438;-76
2022/03/19 02:44:25;;;;;;;64.63;39.97;;;6.30;99.90;;;;;;5071982;28;20440;-76
2022/03/19 02:46:56;;;;;;;63.60;40.23;;;6.20;99.90;;;;;;5070452;28;20425;-75
2022/03/19 02:49:23;;;;;;;67.47;40.40;;;6.40;99.90;;;;;;5070571;28;20862;-76
2022/03/19 02:51:50;;;;;;;59.63;37.97;;;6.30;99.90;;;;;;5071981;28;20432;-75
2022/03/19 02:54:21;;;;;;;62.97;39.03;;;6.30;99.90;;;;;;5071745;28;20418;-76
2022/03/19 02:56:47;;;;;;;60.93;37.17;;;6.20;99.90;;;;;;5070820;28;20410;-76
2022/03/19 02:59:28;;;;;;;65.50;39.50;;;6.30;99.90;;;;;;5071988;28;20450;-77
2022/03/19 03:01:56;;;;;;;68.03;38.90;;;6.30;99.90;;;;;;5072366;28;20817;-79
2022/03/19 03:04:23;;;;;;;62.60;37.70;;;6.30;99.90;;;;;;5070936;28;20413;-77
2022/03/19 03:06:50;;;;;;;64.80;37.43;;;6.10;99.90;;;;;;5054746;28;20438;-78
2022/03/19 03:09:19;;;;;;;57.33;36.73;;;6.20;99.90;;;;;;5070657;28;20491;-79
2022/03/19 03:11:45;;;;;;;61.90;37.17;;;6.20;99.90;;;;;;5072213;28;20433;-78
2022/03/19 03:14:11;;;;;;;59.33;36.93;;;6.30;99.90;;;;;;5070906;28;20515;-78
2022/03/19 03:16:37;;;;;;;66.53;37.77;;;6.10;99.90;;;;;;5070386;28;20241;-78
2022/03/19 03:19:11;;;;;;;66.17;36.67;;;6.20;99.90;;;;;;5071739;28;20432;-78
2022/03/19 03:21:39;;;;;;;63.43;37.20;;;6.10;99.90;;;;;;5070131;28;20769;-78
2022/03/19 03:24:06;;;;;;;62.03;38.13;;;6.10;99.90;;;;;;5071841;28;20418;-78
2022/03/19 03:26:32;;;;;;;75.87;40.90;;;6.00;99.90;;;;;;5069966;28;20429;-78
2022/03/19 03:28:58;;;;;;;69.97;40.23;;;5.70;99.90;;;;;;5053458;28;20457;-78
2022/03/19 03:31:25;;;;;;;64.03;39.10;;;5.60;99.90;;;;;;5071141;28;20517;-76
2022/03/19 03:33:51;;;;;;;66.33;41.10;;;5.40;99.90;;;;;;5070687;28;20417;-76
2022/03/19 03:36:17;;;;;;;69.93;42.50;;;5.20;99.90;;;;;;5071082;28;20476;-76
2022/03/19 03:38:43;;;;;;;75.93;43.40;;;5.10;99.90;;;;;;5071115;28;20433;-76
2022/03/19 03:41:09;;;;;;;69.60;40.90;;;5.00;99.90;;;;;;5069775;28;20430;-76
2022/03/19 03:43:35;;;;;;;63.57;38.63;;;5.00;99.90;;;;;;5071200;28;20201;-76
2022/03/19 03:46:01;;;;;;;68.83;41.80;;;4.80;99.90;;;;;;5069897;28;20262;-74
2022/03/19 03:48:27;;;;;;;64.20;40.30;;;4.70;99.90;;;;;;5069607;28;20456;-77
2022/03/19 03:50:55;;;;;;;67.90;40.80;;;4.70;99.90;;;;;;5052954;28;20428;-75
2022/03/19 03:53:24;;;;;;;66.80;39.73;;;4.60;99.90;;;;;;5069518;28;20226;-75
2022/03/19 03:55:50;;;;;;;78.20;41.40;;;4.50;99.90;;;;;;5069296;28;20465;-77
2022/03/19 03:58:16;;;;;;;66.93;40.87;;;4.40;99.90;;;;;;5069361;28;20448;-76
2022/03/19 04:00:42;;;;;;;66.30;41.67;;;4.40;99.90;;;;;;5070470;28;20425;-77
2022/03/19 04:03:07;;;;;;;68.77;39.83;;;4.40;99.90;;;;;;5070361;28;20423;-75
2022/03/19 04:05:33;;;;;;;65.43;39.40;;;4.30;99.90;;;;;;5068870;28;20181;-76
2022/03/19 04:08:00;;;;;;;63.70;39.70;;;4.30;99.90;;;;;;5070084;28;20189;-75
2022/03/19 04:10:27;;;;;;;68.27;39.30;;;4.20;99.90;;;;;;5070091;28;20438;-77
2022/03/19 04:12:52;;;;;;;66.63;39.73;;;4.20;99.90;;;;;;5070246;28;20403;-73
2022/03/19 04:15:18;;;;;;;69.57;40.10;;;4.20;99.90;;;;;;5068602;28;20839;-73
2022/03/19 04:17:44;;;;;;;64.13;40.13;;;4.20;99.90;;;;;;5069833;28;20186;-72
2022/03/19 04:20:11;;;;;;;71.05;38.70;;;4.10;99.90;;;;;;5069506;28;20212;-74
2022/03/19 04:22:40;;;;;;;62.40;38.90;;;4.00;99.90;;;;;;5069573;28;20675;-73
2022/03/19 04:25:11;;;;;;;68.87;39.03;;;3.90;99.90;;;;;;5070102;28;20444;-75
2022/03/19 04:27:37;;;;;;;64.17;37.97;;;3.90;99.90;;;;;;5069521;28;20421;-73
2022/03/19 04:30:03;;;;;;;64.60;39.53;;;3.90;99.90;;;;;;5069363;28;20433;-73
2022/03/19 04:32:28;;;;;;;67.70;38.67;;;3.80;99.90;;;;;;5069528;28;20926;-74
2022/03/19 04:34:54;;;;;;;66.47;38.43;;;3.80;99.90;;;;;;5069609;28;20464;-75
2022/03/19 04:37:19;;;;;;;68.20;38.47;;;3.80;99.90;;;;;;5051603;28;20185;-74
2022/03/19 04:39:45;;;;;;;68.90;38.67;;;3.80;99.90;;;;;;5069513;28;20198;-74
2022/03/19 04:42:11;;;;;;;63.03;37.43;;;3.80;99.90;;;;;;5067752;28;20182;-73
2022/03/19 04:44:36;;;;;;;61.70;38.70;;;3.70;99.90;;;;;;5068285;28;20191;-72
2022/03/19 04:47:02;;;;;;;60.57;35.20;;;3.70;99.90;;;;;;5069270;28;20186;-73
2022/03/19 04:49:28;;;;;;;63.90;38.15;;;3.70;99.90;;;;;;5069326;28;20193;-74
2022/03/19 04:51:54;;;;;;;66.33;38.40;;;3.60;99.90;;;;;;5069624;28;20535;-72
2022/03/19 04:54:20;;;;;;;59.77;36.47;;;3.70;99.90;;;;;;5069722;28;20662;-73
2022/03/19 04:56:46;;;;;;;57.30;36.57;;;3.70;99.90;;;;;;5069798;28;20235;-73
2022/03/19 04:59:14;;;;;;;62.67;39.97;;;3.70;99.90;;;;;;5069640;28;20477;-74
2022/03/19 05:01:39;;;;;;;68.82;38.10;;;3.60;99.90;;;;;;5069612;28;20431;-75
2022/03/19 05:04:06;;;;;;;60.10;35.47;;;3.50;99.90;;;;;;5069588;28;20196;-74
2022/03/19 05:06:32;;;;;;;64.97;36.43;;;3.60;99.90;;;;;;5069671;28;20951;-71
2022/03/19 05:11:42;;;;;;;61.47;35.83;;;3.60;99.90;;;;;;5069366;28;20468;-75
2022/03/19 05:14:09;;;;;;;60.45;36.00;;;3.60;99.90;;;;;;5069414;28;20295;-75
2022/03/19 05:16:34;;;;;;;63.87;37.43;;;3.50;99.90;;;;;;5068309;28;20888;-76
2022/03/19 05:19:00;;;;;;;59.73;35.70;;;3.50;99.90;;;;;;5067567;28;20474;-74
2022/03/19 05:21:27;;;;;;;64.67;36.50;;;3.40;99.90;;;;;;5069690;28;20717;-75
2022/03/19 05:23:53;;;;;;;59.28;35.88;;;3.40;99.90;;;;;;5067893;28;20203;-74
2022/03/19 05:26:18;;;;;;;64.23;36.60;;;3.40;99.90;;;;;;5069447;28;20212;-74
2022/03/19 05:28:44;;;;;;;60.97;34.67;;;3.40;99.90;;;;;;5069370;28;20200;-73
2022/03/19 05:31:10;;;;;;;64.97;34.60;;;3.30;99.90;;;;;;5069187;28;20219;-80
2022/03/19 05:36:20;;;;;;;62.83;36.45;;;3.30;99.90;;;;;;5067678;28;20231;-74
2022/03/19 05:38:45;;;;;;;60.67;37.30;;;3.30;99.90;;;;;;5069106;28;20203;-75
2022/03/19 05:41:11;;;;;;;59.37;35.97;;;3.20;99.90;;;;;;5067705;28;20627;-75
2022/03/19 05:43:37;;;;;;;56.43;35.13;;;3.20;99.90;;;;;;5069180;28;20202;-76
2022/03/19 05:46:03;;;;;;;57.43;33.93;;;3.20;99.90;;;;;;5067759;28;20923;-75
2022/03/19 05:48:29;;;;;;;56.37;35.53;;;3.30;99.90;;;;;;5067703;28;20210;-74
2022/03/19 05:50:54;;;;;;;64.50;35.70;;;3.30;99.90;;;;;;5069294;28;20830;-75
2022/03/19 05:53:20;;;;;;;63.00;34.87;;;3.20;99.90;;;;;;5051031;28;20630;-76
2022/03/19 05:55:46;;;;;;;63.47;35.77;;;3.20;99.90;;;;;;5070608;28;20208;-75
2022/03/19 05:58:11;;;;;;;58.53;34.80;;;3.20;99.90;;;;;;5054961;28;20191;-76
2022/03/19 06:00:37;;;;;;;66.37;36.10;;;3.20;99.90;;;;;;5071770;28;20797;-75
2022/03/19 06:03:02;;;;;;;61.33;33.93;;;3.20;99.90;;;;;;5073020;28;20236;-76
2022/03/19 06:05:28;;;;;;;61.33;34.07;;;3.20;99.90;;;;;;5071480;28;20200;-77
2022/03/19 06:07:54;;;;;;;61.33;35.20;;;3.20;99.90;;;;;;5071527;28;20714;-76
2022/03/19 06:10:20;;;;;;;62.87;34.23;;;3.10;99.90;;;;;;5071430;28;20191;-75
2022/03/19 06:12:46;;;;;;;62.95;35.53;;;3.10;99.90;;;;;;5072759;28;20448;-75
2022/03/19 06:15:12;;;;;;;65.63;34.20;;;3.20;99.90;;;;;;5072520;28;20216;-76
2022/03/19 06:17:38;;;;;;;54.43;32.27;;;3.50;99.90;;;;;;5072924;28;20455;-76
2022/03/19 06:20:04;;;;;;;61.07;33.50;;;4.00;99.90;;;;;;5054333;28;20205;-76
2022/03/19 06:22:30;;;;;;;50.63;32.53;;;4.50;99.90;;;;;;5072563;28;20189;-75
2022/03/19 06:24:55;;;;;;;56.57;33.50;;;4.90;99.90;;;;;;5071159;28;20421;-77
2022/03/19 06:27:22;;;;;;;52.80;34.10;;;5.30;99.90;;;;;;5072440;28;20185;-77
2022/03/19 06:29:48;;;;;;;62.73;38.67;;;5.90;99.90;;;;;;5071782;28;20198;-76
2022/03/19 06:32:20;;;;;;;62.17;40.73;;;6.30;99.90;;;;;;5071998;28;20429;-76
2022/03/19 06:34:48;;;;;;;67.03;34.70;;;6.60;99.90;;;;;;5071678;28;20448;-81
2022/03/19 06:37:21;;;;;;;56.80;33.17;;;6.80;99.90;;;;;;5071673;28;20413;-76
2022/03/19 06:39:55;;;;;;;51.80;29.83;;;6.90;99.90;;;;;;5072084;28;20429;-79
2022/03/19 06:42:22;;;;;;;55.83;31.63;;;7.00;99.90;;;;;;5071503;28;21232;-76
2022/03/19 06:44:48;;;;;;;43.97;29.80;;;7.20;99.90;;;;;;5071382;28;20421;-74
2022/03/19 06:47:13;;;;;;;52.33;30.10;;;7.40;99.90;;;;;;5071378;28;20416;-75
2022/03/19 06:49:39;;;;;;;53.40;31.60;;;7.60;99.90;;;;;;5071204;28;20852;-76
2022/03/19 06:52:05;;;;;;;47.33;30.47;;;7.70;99.90;;;;;;5071465;28;20601;-75
2022/03/19 06:54:31;;;;;;;50.73;31.00;;;7.60;99.50;;;;;;5071143;28;20683;-77
2022/03/19 06:56:57;;;;;;;51.83;32.10;;;7.70;99.90;;;;;;5071246;28;20417;-75
2022/03/19 06:59:22;;;;;;;48.50;31.23;;;7.80;99.90;;;;;;5071047;28;20202;-75
2022/03/19 07:01:48;;;;;;;49.30;30.13;;;8.00;99.40;;;;;;5071099;28;20653;-76
2022/03/19 07:04:14;;;;;;;46.00;29.13;;;8.00;98.80;;;;;;5071013;28;20187;-76
2022/03/19 07:06:39;;;;;;;45.70;28.97;;;8.10;98.20;;;;;;5068621;28;20599;-76
2022/03/19 07:09:06;;;;;;;49.43;31.90;;;8.30;98.50;;;;;;5070762;28;20503;-76
2022/03/19 07:11:32;;;;;;;48.03;31.07;;;8.20;98.40;;;;;;5070631;28;20241;-76
2022/03/19 07:13:58;;;;;;;49.17;31.33;;;8.40;99.10;;;;;;5070793;28;20418;-76
2022/03/19 07:16:24;;;;;;;50.30;31.33;;;8.50;98.80;;;;;;5070782;28;20502;-75
2022/03/19 07:18:50;;;;;;;49.70;31.13;;;8.70;98.60;;;;;;5070792;28;20518;-76
2022/03/19 07:21:16;;;;;;;47.13;29.30;;;9.00;98.40;;;;;;5070797;28;20549;-75
2022/03/19 07:23:42;;;;;;;47.27;29.93;;;9.30;98.00;;;;;;5070779;28;20414;-75
2022/03/19 07:26:09;;;;;;;47.97;29.50;;;9.10;96.30;;;;;;5069196;28;20417;-76
2022/03/19 07:28:34;;;;;;;48.87;29.80;;;9.10;96.30;;;;;;5070468;28;20444;-75
2022/03/19 07:31:00;;;;;;;51.07;31.13;;;9.20;97.10;;;;;;5070550;28;20426;-76
2022/03/19 07:33:27;;;;;;;45.03;29.73;;;9.20;97.30;;;;;;5070516;28;20526;-75
2022/03/19 07:35:53;;;;;;;55.20;31.70;;;8.90;97.90;;;;;;5069115;28;20288;-76
2022/03/19 07:38:19;;;;;;;47.93;29.20;;;8.70;97.10;;;;;;5070290;28;20574;-76
2022/03/19 07:43:30;;;;;;;45.60;30.50;;;8.90;97.50;;;;;;5070660;28;20186;-75
2022/03/19 07:45:56;;;;;;;45.53;30.43;;;8.80;97.40;;;;;;5069967;28;20421;-76
2022/03/19 07:48:22;;;;;;;45.93;28.00;;;9.10;97.70;;;;;;5067349;28;20445;-76
2022/03/19 07:50:48;;;;;;;45.40;30.93;;;8.80;96.80;;;;;;5067443;28;20187;-78
2022/03/19 07:53:14;;;;;;;50.50;30.73;;;8.80;97.90;;;;;;5068982;28;20460;-75
2022/03/19 07:55:40;;;;;;;45.57;30.37;;;8.80;97.40;;;;;;5067203;28;20457;-75
2022/03/19 07:58:06;;;;;;;45.40;29.00;;;9.20;97.40;;;;;;5066984;28;20440;-76
2022/03/19 08:00:32;;;;;;;49.63;31.13;;;9.00;96.80;;;;;;5067207;28;20330;-76
2022/03/19 08:02:58;;;;;;;48.90;31.00;;;8.80;96.60;;;;;;5068454;28;20990;-75
2022/03/19 08:05:23;;;;;;;50.77;30.23;;;9.10;96.60;;;;;;5050176;28;20418;-76
2022/03/19 08:07:51;;;;;;;50.40;31.13;;;9.10;96.80;;;;;;5068273;28;20186;-78
2022/03/19 08:10:18;;;;;;;47.00;30.13;;;9.20;96.60;;;;;;5066654;28;20288;-75
2022/03/19 08:12:45;;;;;;;49.57;30.50;;;9.30;96.60;;;;;;5068504;28;20444;-75
2022/03/19 08:15:11;;;;;;;53.37;31.37;;;9.20;95.20;;;;;;5068475;28;20583;-75
2022/03/19 08:17:37;;;;;;;49.23;30.10;;;9.50;95.60;;;;;;5068993;28;20413;-76
2022/03/19 08:20:06;;;;;;;47.10;31.20;;;9.50;95.50;;;;;;5066607;28;20506;-76
2022/03/19 08:22:32;;;;;;;49.10;32.20;;;9.60;95.40;;;;;;5068367;28;20453;-78
2022/03/19 08:24:59;;;;;;;46.80;30.23;;;9.60;94.90;;;;;;5068241;28;20441;-77
2022/03/19 08:27:26;;;;;;;49.53;30.73;;;9.80;94.60;;;;;;5066849;28;20510;-77
2022/03/19 08:29:52;;;;;;;41.60;30.03;;;10.00;93.40;;;;;;5066760;28;20437;-76
2022/03/19 08:32:18;;;;;;;47.77;31.83;;;10.30;93.00;;;;;;5068560;28;20506;-78
2022/03/19 08:34:44;;;;;;;49.70;29.37;;;10.60;92.60;;;;;;5068347;28;20431;-78
2022/03/19 08:37:10;;;;;;;45.80;28.33;;;10.90;91.30;;;;;;5068421;28;20455;-77
2022/03/19 08:42:20;;;;;;;41.63;27.10;;;11.20;90.30;;;;;;5068879;28;20178;-78
2022/03/19 08:44:46;;;;;;;40.87;27.20;;;11.30;86.50;;;;;;5067012;28;20932;-79
2022/03/19 08:47:12;;;;;;;41.30;26.27;;;11.40;86.20;;;;;;5067207;28;20455;-77
2022/03/19 08:49:37;;;;;;;44.73;26.00;;;11.60;83.60;;;;;;5066885;28;20249;-77
2022/03/19 08:52:04;;;;;;;44.27;26.80;;;11.80;85.40;;;;;;5068537;28;20421;-77
2022/03/19 08:54:29;;;;;;;38.30;25.33;;;12.00;82.30;;;;;;5068309;28;20176;-78
2022/03/19 08:56:55;;;;;;;48.93;26.20;;;12.20;79.70;;;;;;5068368;28;20445;-77
2022/03/19 08:59:21;;;;;;;37.63;26.27;;;12.70;79.40;;;;;;5068151;28;20204;-77
2022/03/19 09:01:49;;;;;;;41.63;24.33;;;12.70;74.60;;;;;;5068032;28;20184;-77
2022/03/19 09:04:16;;;;;;;36.00;24.90;;;13.10;72.00;;;;;;5068091;28;20815;-77
2022/03/19 09:06:42;;;;;;;36.00;24.60;;;13.50;72.20;;;;;;5066420;28;20806;-77
2022/03/19 09:09:08;;;;;;;32.73;24.07;;;13.80;69.10;;;;;;5067734;28;20463;-77
2022/03/19 09:11:35;;;;;;;40.57;24.80;;;13.80;64.80;;;;;;5065968;28;20446;-77
2022/03/19 09:14:03;;;;;;;45.43;24.50;;;13.90;62.70;;;;;;5067596;28;20492;-77
2022/03/19 09:16:29;;;;;;;31.73;21.43;;;14.20;64.30;;;;;;5066248;28;21042;-77
2022/03/19 09:18:56;;;;;;;39.33;23.10;;;14.40;63.90;;;;;;5067382;28;20472;-77
2022/03/19 09:21:22;;;;;;;31.73;21.90;;;15.10;64.80;;;;;;5068158;28;20427;-77
2022/03/19 09:23:49;;;;;;;35.33;21.70;;;15.30;60.60;;;;;;5067509;28;20416;-75
2022/03/19 09:26:16;;;;;;;33.00;20.97;;;15.00;58.60;;;;;;5068725;28;20803;-75
2022/03/19 09:28:42;;;;;;;34.07;22.30;;;15.10;59.00;;;;;;5068027;28;20433;-78
2022/03/19 09:31:08;;;;;;;34.03;22.40;;;15.10;57.90;;;;;;5065740;28;20477;-79
2022/03/19 09:33:34;;;;;;;32.53;22.17;;;15.60;58.00;;;;;;5068058;28;20417;-78
2022/03/19 09:36:01;;;;;;;30.03;22.20;;;15.30;55.50;;;;;;5068158;28;20453;-78
2022/03/19 09:38:30;;;;;;;30.60;22.70;;;15.60;55.90;;;;;;5068215;28;20433;-79
2022/03/19 09:40:56;;;;;;;38.53;23.97;;;15.60;54.00;;;;;;5066782;28;20515;-79
2022/03/19 09:43:26;;;;;;;33.03;22.27;;;15.40;54.40;;;;;;5066648;28;20802;-78
2022/03/19 09:45:52;;;;;;;33.73;21.90;;;16.00;54.50;;;;;;5067813;28;20409;-78
2022/03/19 09:48:19;;;;;;;31.47;22.60;;;15.60;53.10;;;;;;5068023;28;20441;-78
2022/03/19 09:50:49;;;;;;;32.80;22.43;;;15.40;52.80;;;;;;5067811;28;20919;-78
2022/03/19 09:53:18;;;;;;;30.10;22.00;;;15.30;53.20;;;;;;5068005;28;20459;-78
2022/03/19 09:55:44;;;;;;;35.57;22.33;;;15.50;53.30;;;;;;5049628;28;21144;-77
2022/03/19 09:58:12;;;;;;;30.87;20.60;;;15.90;53.60;;;;;;5067868;28;20417;-78
2022/03/19 10:00:38;;;;;;;37.97;22.40;;;16.20;52.80;;;;;;5067525;28;20224;-78
2022/03/19 10:03:07;;;;;;;30.00;21.97;;;15.90;50.80;;;;;;5066292;28;20418;-83
2022/03/19 10:08:35;;;;;;;26.80;20.40;;;15.80;51.70;;;;;;5067867;28;20439;-80
2022/03/19 10:11:02;;;;;;;32.80;22.00;;;15.90;51.10;;;;;;5067444;28;20449;-78
2022/03/19 10:13:27;;;;;;;28.53;20.63;;;16.30;51.10;;;;;;5067373;28;20457;-79
2022/03/19 10:15:54;;;;;;;36.63;22.57;;;16.70;51.60;;;;;;5067440;28;20490;-78
2022/03/19 10:18:29;;;;;;;33.50;23.23;;;16.80;50.90;;;;;;5067532;28;20191;-79
2022/03/19 10:21:03;;;;;;;34.67;22.13;;;17.00;49.90;;;;;;5066440;28;20559;-78
2022/03/19 10:23:39;;;;;;;32.17;23.30;;;16.90;49.30;;;;;;5066251;28;20421;-78
2022/03/19 10:26:05;;;;;;;35.43;22.23;;;16.40;48.80;;;;;;5066409;28;20437;-79
2022/03/19 10:28:33;;;;;;;32.33;22.47;;;16.50;49.10;;;;;;5066076;28;20495;-79
2022/03/19 10:30:59;;;;;;;33.13;22.17;;;16.70;47.70;;;;;;5066420;28;20509;-79
2022/03/19 10:33:28;;;;;;;35.27;23.37;;;17.00;48.00;;;;;;5067879;28;20961;-79
2022/03/19 10:36:08;;;;;;;30.83;22.50;;;17.10;48.00;;;;;;5066111;28;20600;-78
2022/03/19 10:38:45;;;;;;;35.50;22.83;;;17.00;47.70;;;;;;5067713;28;20429;-80
2022/03/19 10:41:16;;;;;;;40.90;24.70;;;17.20;47.60;;;;;;5068561;28;20417;-79
2022/03/19 10:43:45;;;;;;;37.40;26.67;;;17.30;48.00;;;;;;5071012;28;20434;-80
2022/03/19 10:46:11;;;;;;;34.50;24.33;;;17.30;49.90;;;;;;5070340;28;20833;-78
2022/03/19 10:48:36;;;;;;;38.07;25.43;;;17.30;51.10;;;;;;5070369;28;20441;-78
2022/03/19 10:51:07;;;;;;;34.03;25.10;;;17.50;51.20;;;;;;5052899;28;20190;-77
2022/03/19 10:53:34;;;;;;;39.63;26.23;;;17.50;50.00;;;;;;5071000;28;20179;-79
2022/03/19 10:56:01;;;;;;;38.53;25.97;;;16.90;49.80;;;;;;5069358;28;20875;-79
2022/03/19 10:58:27;;;;;;;37.80;27.17;;;17.00;51.90;;;;;;5070353;28;20434;-78
2022/03/19 11:00:53;;;;;;;38.97;27.73;;;17.30;51.60;;;;;;5069329;28;20468;-78
2022/03/19 11:03:25;;;;;;;39.43;25.10;;;17.10;50.30;;;;;;5070519;28;20779;-78
2022/03/19 11:05:57;;;;;;;39.10;26.73;;;17.10;50.00;;;;;;5070472;28;20483;-78
2022/03/19 11:08:23;;;;;;;36.10;27.60;;;17.40;49.70;;;;;;5069156;28;20950;-78
2022/03/19 11:10:51;;;;;;;45.23;29.30;;;17.10;49.40;;;;;;5068950;28;20442;-78
2022/03/19 11:13:22;;;;;;;36.20;26.83;;;17.10;50.70;;;;;;5069304;28;20926;-78
2022/03/19 11:15:51;;;;;;;38.83;27.43;;;17.30;51.00;;;;;;5070797;28;20450;-78
2022/03/19 11:18:20;;;;;;;40.33;26.43;;;17.30;50.60;;;;;;5070748;28;20545;-78
2022/03/19 11:20:47;;;;;;;40.50;26.10;;;17.40;50.20;;;;;;5069515;28;20506;-79
2022/03/19 11:23:18;;;;;;;37.23;25.83;;;17.60;50.10;;;;;;5069146;28;20423;-78
2022/03/19 11:25:52;;;;;;;37.33;25.13;;;17.50;51.40;;;;;;5070624;28;20410;-79
2022/03/19 11:28:19;;;;;;;43.60;28.10;;;17.20;48.90;;;;;;5069794;28;20437;-78
2022/03/19 11:31:07;;;;;;;38.43;26.53;;;16.90;49.00;;;;;;5070106;28;20475;-78
2022/03/19 11:33:35;;;;;;;43.77;28.20;;;17.20;51.60;;;;;;5069933;28;20418;-80
2022/03/19 11:36:01;;;;;;;40.37;29.77;;;17.60;50.60;;;;;;5068503;28;21040;-78
2022/03/19 11:38:28;;;;;;;42.23;29.33;;;17.40;49.90;;;;;;5069805;28;20513;-79
2022/03/19 11:40:55;;;;;;;48.20;29.73;;;17.40;51.70;;;;;;5069658;28;20180;-79
2022/03/19 11:43:24;;;;;;;47.23;30.13;;;17.30;51.10;;;;;;5054586;28;20445;-79
2022/03/19 11:46:06;;;;;;;41.23;29.37;;;17.20;51.40;;;;;;5071876;28;20422;-81
2022/03/19 11:48:37;;;;;;;43.70;28.93;;;17.10;51.90;;;;;;5071357;28;21298;-80
2022/03/19 11:51:26;;;;;;;47.67;30.30;;;17.30;51.40;;;;;;5069876;28;20418;-81
2022/03/19 11:53:59;;;;;;;41.90;27.57;;;17.40;51.20;;;;;;5070591;28;20545;-81
2022/03/19 11:57:03;;;;;;;33.73;23.13;;;17.50;50.70;;;;;;5071419;28;20506;-80
2022/03/19 11:59:44;;;;;;;35.30;24.43;;;17.20;49.80;;;;;;5070493;28;20943;-80
2022/03/19 12:02:12;;;;;;;38.60;23.00;;;17.10;49.40;;;;;;5071022;28;20410;-80
2022/03/19 12:04:45;;;;;;;26.77;19.80;;;16.70;49.00;;;;;;5070822;28;20440;-79
2022/03/19 12:07:12;;;;;;;32.93;22.37;;;16.90;49.50;;;;;;5071471;28;20533;-80
2022/03/19 12:09:41;;;;;;;28.53;19.70;;;17.10;48.00;;;;;;5069316;28;20583;-80
2022/03/19 12:12:11;;;;;;;30.20;18.10;;;17.00;46.80;;;;;;5070763;28;20523;-80
2022/03/19 12:14:36;;;;;;;28.00;19.50;;;17.30;48.40;;;;;;5070624;28;20939;-79
2022/03/19 12:17:20;;;;;;;24.00;18.40;;;17.40;47.40;;;;;;5070333;28;20473;-80
2022/03/19 12:20:01;;;;;;;27.00;17.40;;;17.10;47.10;;;;;;5052170;28;20227;-79
2022/03/19 12:22:34;;;;;;;27.73;17.73;;;17.10;48.20;;;;;;5070461;28;20989;-79
2022/03/19 12:25:20;;;;;;;40.00;23.17;;;17.10;48.90;;;;;;5070078;28;20929;-80
2022/03/19 12:27:55;;;;;;;29.30;19.20;;;17.50;48.60;;;;;;5068260;28;20434;-79
2022/03/19 12:30:22;;;;;;;32.03;18.90;;;17.20;47.10;;;;;;5069752;28;20449;-79
2022/03/19 12:32:58;;;;;;;30.20;18.13;;;17.00;46.60;;;;;;5070114;28;20423;-79
2022/03/19 12:35:44;;;;;;;26.60;17.60;;;16.90;47.30;;;;;;5068973;28;20457;-80
2022/03/19 12:38:10;;;;;;;23.93;17.13;;;16.90;48.50;;;;;;5069084;28;20398;-79
2022/03/19 12:43:22;;;;;;;28.07;17.67;;;15.80;48.30;;;;;;5069592;28;20963;-80
2022/03/19 12:45:50;;;;;;;24.67;16.57;;;15.70;47.80;;;;;;5067825;28;20491;-78
2022/03/19 12:48:15;;;;;;;21.23;16.07;;;16.00;49.10;;;;;;5068273;28;20432;-80
2022/03/19 12:50:48;;;;;;;27.37;17.47;;;16.20;48.80;;;;;;5070173;28;20425;-80
2022/03/19 12:53:13;;;;;;;30.43;17.23;;;16.20;47.80;;;;;;5070138;28;20167;-80